Terminal Aerodrome Forecast
Issued by NWS

Current Version | Previous Version | Text Only | Print | Product List | Glossary On
Versions: 1 2 3 4 5 6 7 8 9 10 11 12 13 14 15 16 17 18 19 20 21 22 23
000
FTUS41 KOKX 031930 AAA
TAFHPN
TAF AMD
KHPN 031930Z 0320/0418 VRB05KT P6SM SCT250
     FM032100 17008KT P6SM BKN250
     FM040100 VRB04KT P6SM BKN200
     FM040800 06005KT P6SM OVC100
     FM041400 06010KT P6SM SCT040 OVC080
      AMD NOT SKED=

USA.gov is the U.S. government's official web portal to all federal, state and local government web resources and services.